sensor_id;sensor_type;location;lat;lon;timestamp;P1;durP1;ratioP1;P2;durP2;ratioP2
43554;SDS011;35085;40.398;-3.702;2024-02-28T00:08:47;1.95;;;0.40;;
43554;SDS011;35085;40.398;-3.702;2024-02-28T00:18:56;3.65;;;0.50;;
43554;SDS011;35085;40.398;-3.702;2024-02-28T00:29:04;3.83;;;0.60;;
43554;SDS011;35085;40.398;-3.702;2024-02-28T00:39:12;3.33;;;0.60;;
43554;SDS011;35085;40.398;-3.702;2024-02-28T00:49:20;2.22;;;1.00;;
43554;SDS011;35085;40.398;-3.702;2024-02-28T00:59:28;2.55;;;0.55;;
43554;SDS011;35085;40.398;-3.702;2024-02-28T01:09:36;3.92;;;0.60;;
43554;SDS011;35085;40.398;-3.702;2024-02-28T01:19:46;4.07;;;1.55;;
43554;SDS011;35085;40.398;-3.702;2024-02-28T01:29:54;7.57;;;1.70;;
43554;SDS011;35085;40.398;-3.702;2024-02-28T01:40:02;3.45;;;0.80;;
43554;SDS011;35085;40.398;-3.702;2024-02-28T01:50:11;3.93;;;0.80;;
43554;SDS011;35085;40.398;-3.702;2024-02-28T02:00:19;3.58;;;1.02;;
43554;SDS011;35085;40.398;-3.702;2024-02-28T02:10:28;3.87;;;1.60;;
43554;SDS011;35085;40.398;-3.702;2024-02-28T02:20:38;8.45;;;1.85;;
43554;SDS011;35085;40.398;-3.702;2024-02-28T02:30:49;2.67;;;1.05;;
43554;SDS011;35085;40.398;-3.702;2024-02-28T02:40:57;5.65;;;1.00;;
43554;SDS011;35085;40.398;-3.702;2024-02-28T02:50:58;2.58;;;0.80;;
43554;SDS011;35085;40.398;-3.702;2024-02-28T03:01:06;4.35;;;0.93;;
43554;SDS011;35085;40.398;-3.702;2024-02-28T03:11:15;2.97;;;0.70;;
43554;SDS011;35085;40.398;-3.702;2024-02-28T03:21:25;3.88;;;1.30;;
43554;SDS011;35085;40.398;-3.702;2024-02-28T03:31:33;2.47;;;0.98;;
43554;SDS011;35085;40.398;-3.702;2024-02-28T03:41:41;6.25;;;1.58;;
43554;SDS011;35085;40.398;-3.702;2024-02-28T03:51:49;6.30;;;1.10;;
43554;SDS011;35085;40.398;-3.702;2024-02-28T04:01:57;4.15;;;0.80;;
43554;SDS011;35085;40.398;-3.702;2024-02-28T04:12:05;4.32;;;1.27;;
43554;SDS011;35085;40.398;-3.702;2024-02-28T04:22:13;3.67;;;1.13;;
43554;SDS011;35085;40.398;-3.702;2024-02-28T04:32:21;2.75;;;0.68;;
43554;SDS011;35085;40.398;-3.702;2024-02-28T04:42:29;2.38;;;1.15;;
43554;SDS011;35085;40.398;-3.702;2024-02-28T04:52:31;2.85;;;1.08;;
43554;SDS011;35085;40.398;-3.702;2024-02-28T05:02:36;3.33;;;0.70;;
43554;SDS011;35085;40.398;-3.702;2024-02-28T05:12:44;4.07;;;0.80;;
43554;SDS011;35085;40.398;-3.702;2024-02-28T05:22:52;2.17;;;0.80;;
43554;SDS011;35085;40.398;-3.702;2024-02-28T05:33:00;5.00;;;1.35;;
43554;SDS011;35085;40.398;-3.702;2024-02-28T05:43:08;3.92;;;0.95;;
43554;SDS011;35085;40.398;-3.702;2024-02-28T05:53:16;3.83;;;0.88;;
43554;SDS011;35085;40.398;-3.702;2024-02-28T06:03:24;2.78;;;1.10;;
43554;SDS011;35085;40.398;-3.702;2024-02-28T06:13:32;3.90;;;1.20;;
43554;SDS011;35085;40.398;-3.702;2024-02-28T06:23:42;2.80;;;1.23;;
43554;SDS011;35085;40.398;-3.702;2024-02-28T06:33:50;7.85;;;1.73;;
43554;SDS011;35085;40.398;-3.702;2024-02-28T06:43:58;7.57;;;2.17;;
43554;SDS011;35085;40.398;-3.702;2024-02-28T06:54:06;7.47;;;1.67;;
43554;SDS011;35085;40.398;-3.702;2024-02-28T07:04:14;3.55;;;1.35;;
43554;SDS011;35085;40.398;-3.702;2024-02-28T07:14:22;4.22;;;1.50;;
43554;SDS011;35085;40.398;-3.702;2024-02-28T07:24:32;4.47;;;1.13;;
43554;SDS011;35085;40.398;-3.702;2024-02-28T07:34:40;6.78;;;1.45;;
43554;SDS011;35085;40.398;-3.702;2024-02-28T07:44:46;6.00;;;1.60;;
43554;SDS011;35085;40.398;-3.702;2024-02-28T07:54:54;7.13;;;1.98;;
43554;SDS011;35085;40.398;-3.702;2024-02-28T08:05:02;6.70;;;1.98;;
43554;SDS011;35085;40.398;-3.702;2024-02-28T08:15:10;7.70;;;2.38;;
43554;SDS011;35085;40.398;-3.702;2024-02-28T08:25:20;6.45;;;1.40;;
43554;SDS011;35085;40.398;-3.702;2024-02-28T08:35:30;8.82;;;2.45;;
43554;SDS011;35085;40.398;-3.702;2024-02-28T08:45:40;9.90;;;2.30;;
43554;SDS011;35085;40.398;-3.702;2024-02-28T08:55:53;7.32;;;2.00;;
43554;SDS011;35085;40.398;-3.702;2024-02-28T09:06:03;6.25;;;2.30;;
43554;SDS011;35085;40.398;-3.702;2024-02-28T09:16:15;6.88;;;1.60;;
43554;SDS011;35085;40.398;-3.702;2024-02-28T09:26:24;7.18;;;1.92;;
43554;SDS011;35085;40.398;-3.702;2024-02-28T09:36:40;7.18;;;1.80;;
43554;SDS011;35085;40.398;-3.702;2024-02-28T09:46:43;8.03;;;2.17;;
43554;SDS011;35085;40.398;-3.702;2024-02-28T09:56:53;4.47;;;1.05;;
43554;SDS011;35085;40.398;-3.702;2024-02-28T10:07:11;1.63;;;0.83;;
43554;SDS011;35085;40.398;-3.702;2024-02-28T10:17:21;3.40;;;0.80;;
43554;SDS011;35085;40.398;-3.702;2024-02-28T10:27:34;2.30;;;1.15;;
43554;SDS011;35085;40.398;-3.702;2024-02-28T10:37:42;2.50;;;0.70;;
43554;SDS011;35085;40.398;-3.702;2024-02-28T10:47:50;3.30;;;0.55;;
43554;SDS011;35085;40.398;-3.702;2024-02-28T10:58:05;0.75;;;0.25;;
43554;SDS011;35085;40.398;-3.702;2024-02-28T11:08:22;1.05;;;0.30;;
43554;SDS011;35085;40.398;-3.702;2024-02-28T11:18:32;3.20;;;0.40;;
43554;SDS011;35085;40.398;-3.702;2024-02-28T11:28:40;2.05;;;0.30;;
43554;SDS011;35085;40.398;-3.702;2024-02-28T11:38:48;0.68;;;0.20;;
43554;SDS011;35085;40.398;-3.702;2024-02-28T11:48:56;1.95;;;0.63;;
43554;SDS011;35085;40.398;-3.702;2024-02-28T11:59:04;3.35;;;0.50;;
43554;SDS011;35085;40.398;-3.702;2024-02-28T12:09:12;1.02;;;0.20;;
43554;SDS011;35085;40.398;-3.702;2024-02-28T12:19:20;3.38;;;0.38;;
43554;SDS011;35085;40.398;-3.702;2024-02-28T12:39:38;0.73;;;0.30;;
43554;SDS011;35085;40.398;-3.702;2024-02-28T12:49:49;1.83;;;0.40;;
43554;SDS011;35085;40.398;-3.702;2024-02-28T12:59:59;4.33;;;0.40;;
43554;SDS011;35085;40.398;-3.702;2024-02-28T13:10:09;3.00;;;0.38;;
43554;SDS011;35085;40.398;-3.702;2024-02-28T13:20:18;0.60;;;0.17;;
43554;SDS011;35085;40.398;-3.702;2024-02-28T13:30:26;4.07;;;0.20;;
43554;SDS011;35085;40.398;-3.702;2024-02-28T13:40:37;1.23;;;0.30;;
43554;SDS011;35085;40.398;-3.702;2024-02-28T13:50:46;0.80;;;0.30;;
43554;SDS011;35085;40.398;-3.702;2024-02-28T14:00:55;2.38;;;0.47;;
43554;SDS011;35085;40.398;-3.702;2024-02-28T14:11:05;1.10;;;0.30;;
43554;SDS011;35085;40.398;-3.702;2024-02-28T14:21:17;1.55;;;0.40;;
43554;SDS011;35085;40.398;-3.702;2024-02-28T14:31:24;0.70;;;0.20;;
43554;SDS011;35085;40.398;-3.702;2024-02-28T14:41:34;0.60;;;0.10;;
43554;SDS011;35085;40.398;-3.702;2024-02-28T14:51:43;1.47;;;0.23;;
43554;SDS011;35085;40.398;-3.702;2024-02-28T15:01:52;0.90;;;0.20;;
43554;SDS011;35085;40.398;-3.702;2024-02-28T15:12:06;2.30;;;0.30;;
43554;SDS011;35085;40.398;-3.702;2024-02-28T15:22:13;0.47;;;0.20;;
43554;SDS011;35085;40.398;-3.702;2024-02-28T15:32:23;0.60;;;0.30;;
43554;SDS011;35085;40.398;-3.702;2024-02-28T15:42:35;0.60;;;0.22;;
43554;SDS011;35085;40.398;-3.702;2024-02-28T15:52:44;1.20;;;0.20;;
43554;SDS011;35085;40.398;-3.702;2024-02-28T16:02:52;0.90;;;0.20;;
43554;SDS011;35085;40.398;-3.702;2024-02-28T16:13:01;1.60;;;0.60;;
43554;SDS011;35085;40.398;-3.702;2024-02-28T16:23:14;0.63;;;0.20;;
43554;SDS011;35085;40.398;-3.702;2024-02-28T16:33:22;1.13;;;0.30;;
43554;SDS011;35085;40.398;-3.702;2024-02-28T16:43:31;1.75;;;0.20;;
43554;SDS011;35085;40.398;-3.702;2024-02-28T16:53:39;0.98;;;0.20;;
43554;SDS011;35085;40.398;-3.702;2024-02-28T17:03:46;1.52;;;0.20;;
43554;SDS011;35085;40.398;-3.702;2024-02-28T17:13:58;0.80;;;0.10;;
43554;SDS011;35085;40.398;-3.702;2024-02-28T17:24:06;7.63;;;0.47;;
43554;SDS011;35085;40.398;-3.702;2024-02-28T17:34:15;0.73;;;0.30;;
43554;SDS011;35085;40.398;-3.702;2024-02-28T17:44:25;1.85;;;0.30;;
43554;SDS011;35085;40.398;-3.702;2024-02-28T17:54:36;1.88;;;0.32;;
43554;SDS011;35085;40.398;-3.702;2024-02-28T18:04:45;1.30;;;0.10;;
43554;SDS011;35085;40.398;-3.702;2024-02-28T18:14:50;2.05;;;0.20;;
43554;SDS011;35085;40.398;-3.702;2024-02-28T18:24:59;3.47;;;0.20;;
43554;SDS011;35085;40.398;-3.702;2024-02-28T18:35:08;2.47;;;0.70;;
43554;SDS011;35085;40.398;-3.702;2024-02-28T18:45:17;2.70;;;0.50;;
43554;SDS011;35085;40.398;-3.702;2024-02-28T18:55:27;2.25;;;0.90;;
43554;SDS011;35085;40.398;-3.702;2024-02-28T19:05:37;3.80;;;1.38;;
43554;SDS011;35085;40.398;-3.702;2024-02-28T19:25:56;9.52;;;2.80;;
43554;SDS011;35085;40.398;-3.702;2024-02-28T19:46:09;4.15;;;1.05;;
43554;SDS011;35085;40.398;-3.702;2024-02-28T19:56:18;3.20;;;1.47;;
43554;SDS011;35085;40.398;-3.702;2024-02-28T20:06:26;1.83;;;0.90;;
43554;SDS011;35085;40.398;-3.702;2024-02-28T20:16:34;6.55;;;2.38;;
43554;SDS011;35085;40.398;-3.702;2024-02-28T20:26:46;4.57;;;2.10;;
43554;SDS011;35085;40.398;-3.702;2024-02-28T20:36:55;9.20;;;3.67;;
43554;SDS011;35085;40.398;-3.702;2024-02-28T20:57:10;10.40;;;3.60;;
43554;SDS011;35085;40.398;-3.702;2024-02-28T21:07:20;10.93;;;3.25;;
43554;SDS011;35085;40.398;-3.702;2024-02-28T21:17:23;8.90;;;3.53;;
43554;SDS011;35085;40.398;-3.702;2024-02-28T21:27:33;10.45;;;3.75;;
43554;SDS011;35085;40.398;-3.702;2024-02-28T21:47:45;7.68;;;2.40;;
43554;SDS011;35085;40.398;-3.702;2024-02-28T21:57:53;4.00;;;2.03;;
43554;SDS011;35085;40.398;-3.702;2024-02-28T22:08:01;6.97;;;2.70;;
43554;SDS011;35085;40.398;-3.702;2024-02-28T22:18:09;7.75;;;2.75;;
43554;SDS011;35085;40.398;-3.702;2024-02-28T22:28:17;7.07;;;3.00;;
43554;SDS011;35085;40.398;-3.702;2024-02-28T22:38:27;6.93;;;2.87;;
43554;SDS011;35085;40.398;-3.702;2024-02-28T22:48:36;9.75;;;4.10;;
43554;SDS011;35085;40.398;-3.702;2024-02-28T22:58:44;6.68;;;2.72;;
43554;SDS011;35085;40.398;-3.702;2024-02-28T23:08:45;8.23;;;2.97;;
43554;SDS011;35085;40.398;-3.702;2024-02-28T23:18:53;8.95;;;3.20;;
43554;SDS011;35085;40.398;-3.702;2024-02-28T23:29:03;7.97;;;3.00;;
43554;SDS011;35085;40.398;-3.702;2024-02-28T23:39:12;3.73;;;2.00;;
43554;SDS011;35085;40.398;-3.702;2024-02-28T23:49:20;4.95;;;1.60;;
43554;SDS011;35085;40.398;-3.702;2024-02-28T23:59:29;6.72;;;2.10;;
